createdAt,value
2023-02-07T00:00:16.931Z,87.6
2023-02-07T00:01:17.472Z,87.6
2023-02-07T00:02:17.325Z,87.7
2023-02-07T00:03:16.943Z,87.6
2023-02-07T00:04:17.467Z,87.7
2023-02-07T00:05:16.964Z,87.7
2023-02-07T00:06:16.490Z,87.7
2023-02-07T00:07:16.999Z,87.8
2023-02-07T00:08:16.518Z,87.8
2023-02-07T00:09:17.017Z,87.7
2023-02-07T00:10:16.557Z,87.8
2023-02-07T00:11:17.146Z,87.9
2023-02-07T00:12:16.470Z,87.9
2023-02-07T00:13:16.947Z,88.0
2023-02-07T00:14:17.482Z,88.0
2023-02-07T00:15:16.972Z,88.0
2023-02-07T00:16:16.530Z,88.0
2023-02-07T00:17:17.022Z,88.0
2023-02-07T00:18:16.576Z,87.9
2023-02-07T00:19:17.092Z,87.9
2023-02-07T00:20:16.638Z,87.9
2023-02-07T00:21:17.156Z,87.9
2023-02-07T00:22:16.737Z,87.9
2023-02-07T00:23:17.332Z,88.0
2023-02-07T00:24:16.883Z,88.0
2023-02-07T00:25:17.390Z,88.0
2023-02-07T00:26:17.033Z,88.0
2023-02-07T00:27:16.730Z,88.1
2023-02-07T00:28:17.509Z,88.2
2023-02-07T00:29:17.062Z,88.1
2023-02-07T00:30:16.621Z,88.2
2023-02-07T00:31:17.416Z,88.1
2023-02-07T00:32:16.776Z,88.1
2023-02-07T00:33:17.302Z,88.1
2023-02-07T00:34:16.798Z,88.2
2023-02-07T00:35:17.320Z,88.2
2023-02-07T00:36:16.872Z,88.2
2023-02-07T00:37:17.362Z,88.2
2023-02-07T00:38:16.886Z,88.2
2023-02-07T00:39:17.385Z,88.3
2023-02-07T00:40:16.879Z,88.3
2023-02-07T00:41:17.392Z,88.3
2023-02-07T00:42:16.817Z,88.3
2023-02-07T00:43:30.175Z,88.2
2023-02-07T00:44:16.732Z,88.3
2023-02-07T00:45:17.247Z,88.3
2023-02-07T00:46:16.979Z,88.3
2023-02-07T00:47:16.502Z,88.3
2023-02-07T00:48:16.989Z,88.4
2023-02-07T00:49:16.492Z,88.3
2023-02-07T00:50:17.004Z,88.4
2023-02-07T00:51:16.516Z,88.4
2023-02-07T00:52:16.950Z,88.3
2023-02-07T00:53:17.576Z,88.4
2023-02-07T00:54:17.280Z,88.4
2023-02-07T00:55:17.049Z,88.4
2023-02-07T00:56:16.812Z,88.5
2023-02-07T00:57:17.605Z,88.5
2023-02-07T00:58:17.399Z,88.5
2023-02-07T00:59:17.478Z,88.6
2023-02-07T01:00:17.355Z,88.7
2023-02-07T01:01:17.345Z,88.8
2023-02-07T01:02:16.832Z,88.7
2023-02-07T01:03:17.509Z,88.7
2023-02-07T01:04:17.267Z,88.7
2023-02-07T01:05:17.030Z,88.8
2023-02-07T01:06:16.509Z,88.8
2023-02-07T01:07:17.016Z,88.9
2023-02-07T01:08:16.540Z,89.0
2023-02-07T01:09:17.031Z,89.0
2023-02-07T01:10:16.517Z,89.0
2023-02-07T01:11:16.997Z,89.0
2023-02-07T01:12:16.459Z,89.0
2023-02-07T01:13:16.994Z,89.0
2023-02-07T01:14:16.477Z,89.2
2023-02-07T01:15:16.949Z,89.1
2023-02-07T01:16:17.584Z,89.2
2023-02-07T01:17:17.099Z,89.2
2023-02-07T01:18:16.594Z,89.1
2023-02-07T01:19:17.106Z,89.1
2023-02-07T01:20:16.673Z,89.0
2023-02-07T01:21:17.152Z,89.1
2023-02-07T01:22:16.914Z,89.1
2023-02-07T01:23:17.425Z,89.1
2023-02-07T01:24:16.893Z,89.1
2023-02-07T01:25:17.369Z,89.0
2023-02-07T01:26:16.856Z,89.0
2023-02-07T01:27:17.370Z,89.0
2023-02-07T01:28:16.984Z,89.1
2023-02-07T01:29:16.504Z,89.1
2023-02-07T01:30:16.993Z,89.1
2023-02-07T01:31:16.774Z,89.3
2023-02-07T01:32:17.127Z,89.3
2023-02-07T01:33:16.617Z,89.2
2023-02-07T01:34:17.132Z,89.2
2023-02-07T01:35:16.651Z,89.2
2023-02-07T01:36:17.150Z,89.3
2023-02-07T01:37:16.636Z,89.3
2023-02-07T01:38:17.108Z,89.3
2023-02-07T01:39:16.643Z,89.3
2023-02-07T01:40:17.131Z,89.3
2023-02-07T01:41:16.620Z,89.4
2023-02-07T01:42:17.310Z,89.4
2023-02-07T01:43:16.829Z,89.5
2023-02-07T01:44:17.340Z,89.5
2023-02-07T01:45:16.858Z,89.4
2023-02-07T01:46:17.415Z,89.4
2023-02-07T01:47:16.920Z,89.5
2023-02-07T01:48:17.438Z,89.5
2023-02-07T01:49:16.938Z,89.5
2023-02-07T01:50:17.430Z,89.5
2023-02-07T01:51:16.951Z,89.5
2023-02-07T01:52:17.033Z,89.5
2023-02-07T01:53:16.527Z,89.5
2023-02-07T01:54:17.006Z,89.5
2023-02-07T01:55:16.540Z,89.6
2023-02-07T01:56:31.798Z,89.7
2023-02-07T01:57:16.611Z,89.8
2023-02-07T01:58:17.102Z,89.8
2023-02-07T01:59:16.580Z,89.7
2023-02-07T02:00:17.083Z,89.6
2023-02-07T02:01:16.591Z,89.7
2023-02-07T02:02:16.987Z,89.7
2023-02-07T02:03:16.477Z,89.6
2023-02-07T02:04:16.963Z,89.6
2023-02-07T02:05:17.464Z,89.6
2023-02-07T02:06:16.977Z,89.6
2023-02-07T02:07:16.467Z,89.6
2023-02-07T02:08:16.964Z,89.6
2023-02-07T02:09:17.463Z,89.5
2023-02-07T02:10:16.956Z,89.6
2023-02-07T02:11:17.469Z,89.6
2023-02-07T02:12:17.243Z,89.7
2023-02-07T02:13:16.736Z,89.7
2023-02-07T02:14:17.217Z,89.7
2023-02-07T02:15:16.724Z,89.6
2023-02-07T02:16:17.253Z,89.6
2023-02-07T02:17:16.793Z,89.8
2023-02-07T02:18:17.275Z,89.8
2023-02-07T02:19:16.786Z,89.8
2023-02-07T02:20:17.321Z,89.8
2023-02-07T02:21:16.806Z,89.7
2023-02-07T02:22:17.287Z,89.8
2023-02-07T02:23:16.781Z,89.8
2023-02-07T02:24:17.275Z,89.8
2023-02-07T02:25:16.768Z,89.8
2023-02-07T02:26:17.255Z,89.8
2023-02-07T02:27:16.757Z,89.8
2023-02-07T02:28:17.359Z,89.8
2023-02-07T02:29:16.890Z,89.8
2023-02-07T02:30:17.386Z,89.9
2023-02-07T02:31:16.967Z,90.0
2023-02-07T02:32:17.382Z,90.0
2023-02-07T02:33:16.870Z,89.9
2023-02-07T02:34:17.377Z,89.9
2023-02-07T02:35:16.857Z,90.0
2023-02-07T02:36:17.375Z,90.0
2023-02-07T02:37:16.836Z,90.0
2023-02-07T02:38:17.324Z,90.0
2023-02-07T02:39:16.781Z,90.2
2023-02-07T02:40:17.261Z,90.2
2023-02-07T02:41:16.750Z,90.2
2023-02-07T02:42:17.191Z,90.2
2023-02-07T02:43:16.740Z,90.2
2023-02-07T02:44:17.271Z,90.1
2023-02-07T02:45:16.757Z,90.2
2023-02-07T02:46:17.313Z,90.1
2023-02-07T02:47:16.808Z,90.1
2023-02-07T02:48:17.320Z,90.2
2023-02-07T02:49:16.859Z,90.1
2023-02-07T02:50:17.387Z,90.2
2023-02-07T02:51:16.867Z,90.2
2023-02-07T02:52:17.413Z,90.2
2023-02-07T02:53:16.929Z,90.3
2023-02-07T02:54:17.436Z,90.4
2023-02-07T02:55:17.040Z,90.3
2023-02-07T02:56:16.540Z,90.3
2023-02-07T02:57:17.048Z,90.3
2023-02-07T02:58:16.542Z,90.4
2023-02-07T02:59:17.020Z,90.4
2023-02-07T03:00:16.529Z,90.3
2023-02-07T03:01:17.148Z,90.3
2023-02-07T03:02:16.462Z,90.4
2023-02-07T03:03:16.978Z,90.5
2023-02-07T03:04:16.481Z,90.5
2023-02-07T03:05:17.126Z,90.5
2023-02-07T03:06:16.696Z,90.4
2023-02-07T03:07:17.223Z,90.4
2023-02-07T03:08:16.707Z,90.5
2023-02-07T03:09:17.234Z,90.6
2023-02-07T03:10:16.707Z,90.6
2023-02-07T03:11:17.207Z,90.5
2023-02-07T03:12:16.769Z,90.6
2023-02-07T03:13:17.269Z,90.7
2023-02-07T03:14:16.741Z,90.6
2023-02-07T03:15:17.234Z,90.6
2023-02-07T03:16:16.804Z,90.5
2023-02-07T03:17:17.359Z,90.5
2023-02-07T03:18:16.866Z,90.5
2023-02-07T03:19:17.338Z,90.5
2023-02-07T03:20:16.914Z,90.6
2023-02-07T03:21:17.468Z,90.7
2023-02-07T03:22:17.031Z,90.6
2023-02-07T03:23:16.521Z,90.6
2023-02-07T03:24:17.025Z,90.7
2023-02-07T03:25:16.517Z,90.6
2023-02-07T03:26:17.011Z,90.6
2023-02-07T03:27:16.518Z,90.7
2023-02-07T03:28:17.064Z,90.8
2023-02-07T03:29:16.604Z,90.9
2023-02-07T03:30:17.104Z,90.9
2023-02-07T03:31:16.643Z,90.9
2023-02-07T03:32:17.388Z,90.9
2023-02-07T03:33:16.865Z,90.9
2023-02-07T03:34:17.358Z,90.9
2023-02-07T03:35:16.866Z,91.0
2023-02-07T03:36:17.472Z,91.0
2023-02-07T03:37:16.977Z,91.0
2023-02-07T03:38:16.457Z,90.9
2023-02-07T03:39:16.933Z,90.9
2023-02-07T03:40:17.459Z,91.0
2023-02-07T03:41:16.958Z,91.1
2023-02-07T03:42:17.099Z,91.3
2023-02-07T03:43:16.622Z,91.3
2023-02-07T03:44:17.129Z,91.4
2023-02-07T03:45:16.634Z,91.6
2023-02-07T03:46:17.217Z,91.8
2023-02-07T03:47:16.725Z,91.8
2023-02-07T03:48:17.191Z,91.7
2023-02-07T03:49:16.691Z,91.9
2023-02-07T03:50:17.218Z,91.9
2023-02-07T03:51:16.709Z,91.9
2023-02-07T03:52:17.313Z,91.8
2023-02-07T03:53:16.836Z,91.9
2023-02-07T03:54:17.321Z,92.2
2023-02-07T03:55:16.842Z,92.4
2023-02-07T03:56:17.532Z,92.3
2023-02-07T03:57:17.212Z,92.3
2023-02-07T03:58:16.708Z,92.1
2023-02-07T03:59:17.182Z,92.1
2023-02-07T04:00:16.690Z,92.2
2023-02-07T04:01:17.292Z,92.1
2023-02-07T04:02:16.888Z,92.0
2023-02-07T04:03:17.641Z,92.0
2023-02-07T04:04:17.314Z,92.0
2023-02-07T04:05:16.825Z,91.9
2023-02-07T04:06:17.358Z,92.2
2023-02-07T04:07:16.838Z,92.7
2023-02-07T04:08:17.360Z,93.1
2023-02-07T04:09:16.840Z,93.3
2023-02-07T04:10:17.384Z,93.4
2023-02-07T04:11:16.885Z,93.5
2023-02-07T04:12:17.033Z,93.4
2023-02-07T04:13:16.760Z,93.2
2023-02-07T04:14:17.322Z,93.0
2023-02-07T04:15:16.792Z,92.8
2023-02-07T04:16:17.548Z,92.8
2023-02-07T04:17:17.221Z,92.9
2023-02-07T04:18:16.727Z,93.0
2023-02-07T04:19:17.249Z,92.8
2023-02-07T04:20:16.750Z,92.8
2023-02-07T04:21:17.239Z,92.8
2023-02-07T04:22:16.824Z,92.9
2023-02-07T04:23:17.319Z,92.8
2023-02-07T04:24:16.812Z,92.8
2023-02-07T04:25:17.292Z,92.7
2023-02-07T04:26:16.804Z,92.7
2023-02-07T04:27:17.311Z,92.7
2023-02-07T04:28:17.046Z,92.7
2023-02-07T04:29:16.569Z,92.7
2023-02-07T04:30:17.102Z,92.6
2023-02-07T04:31:16.712Z,92.6
2023-02-07T04:32:17.246Z,92.6
2023-02-07T04:33:16.778Z,92.6
2023-02-07T04:34:17.288Z,92.6
2023-02-07T04:35:16.818Z,92.6
2023-02-07T04:36:17.323Z,92.5
2023-02-07T04:37:16.815Z,92.5
2023-02-07T04:38:17.307Z,92.5
2023-02-07T04:39:16.793Z,92.5
2023-02-07T04:40:17.284Z,92.5
2023-02-07T04:41:16.782Z,92.5
2023-02-07T04:42:17.194Z,92.5
2023-02-07T04:43:16.671Z,92.5
2023-02-07T04:44:17.170Z,92.4
2023-02-07T04:45:16.708Z,92.7
2023-02-07T04:46:17.223Z,92.6
2023-02-07T04:47:16.711Z,92.7
2023-02-07T04:48:17.230Z,92.7
2023-02-07T04:49:16.748Z,92.7
2023-02-07T04:50:17.280Z,92.7
2023-02-07T04:51:16.792Z,92.6
2023-02-07T04:52:17.278Z,92.6
2023-02-07T04:53:16.781Z,92.6
2023-02-07T04:54:17.298Z,92.6
2023-02-07T04:55:16.825Z,92.7
2023-02-07T04:56:17.376Z,92.8
2023-02-07T04:57:16.893Z,92.9
2023-02-07T04:58:17.419Z,92.9
2023-02-07T04:59:16.925Z,93.2
2023-02-07T05:00:17.482Z,93.1
2023-02-07T05:01:17.185Z,93.2
2023-02-07T05:02:17.271Z,93.2
2023-02-07T05:03:16.809Z,93.1
2023-02-07T05:04:17.442Z,93.1
2023-02-07T05:05:16.940Z,93.0
2023-02-07T05:06:17.450Z,93.0
2023-02-07T05:07:16.954Z,92.9
2023-02-07T05:08:17.419Z,92.9
2023-02-07T05:09:16.925Z,92.9
2023-02-07T05:10:17.434Z,92.8
2023-02-07T05:11:16.937Z,92.8
2023-02-07T05:12:17.298Z,92.8
2023-02-07T05:13:16.783Z,92.9
2023-02-07T05:14:17.307Z,93.1
2023-02-07T05:15:16.799Z,93.2
2023-02-07T05:16:17.305Z,93.4
2023-02-07T05:17:16.818Z,93.5
2023-02-07T05:18:17.310Z,93.5
2023-02-07T05:19:16.802Z,93.6
2023-02-07T05:20:17.315Z,93.6
2023-02-07T05:21:16.803Z,93.5
2023-02-07T05:22:17.256Z,93.5
2023-02-07T05:23:16.739Z,93.5
2023-02-07T05:24:17.278Z,93.5
2023-02-07T05:25:16.769Z,93.4
2023-02-07T05:26:17.304Z,93.3
2023-02-07T05:27:16.826Z,93.2
2023-02-07T05:28:17.427Z,93.1
2023-02-07T05:29:16.978Z,93.1
2023-02-07T05:30:16.503Z,93.2
2023-02-07T05:31:17.197Z,93.1
2023-02-07T05:32:16.620Z,93.1
2023-02-07T05:33:17.097Z,93.0
2023-02-07T05:34:16.607Z,93.0
2023-02-07T05:35:17.101Z,93.0
2023-02-07T05:36:16.565Z,93.0
2023-02-07T05:37:17.082Z,93.0
2023-02-07T05:38:16.612Z,93.1
2023-02-07T05:39:17.190Z,93.0
2023-02-07T05:40:16.721Z,93.0
2023-02-07T05:41:17.218Z,93.0
2023-02-07T05:42:16.622Z,93.0
2023-02-07T05:43:17.146Z,93.1
2023-02-07T05:44:16.653Z,93.3
2023-02-07T05:45:17.151Z,93.3
2023-02-07T05:46:16.735Z,93.3
2023-02-07T05:47:17.273Z,93.3
2023-02-07T05:48:16.738Z,93.3
2023-02-07T05:49:17.260Z,93.3
2023-02-07T05:50:16.801Z,93.4
2023-02-07T05:51:17.315Z,93.4
2023-02-07T05:52:16.582Z,93.6
2023-02-07T05:53:17.114Z,93.8
2023-02-07T05:54:16.609Z,93.5
2023-02-07T05:55:17.106Z,93.5
2023-02-07T05:56:16.588Z,93.5
2023-02-07T05:57:17.088Z,93.5
2023-02-07T05:58:16.575Z,93.4
2023-02-07T05:59:17.097Z,93.5
2023-02-07T06:00:16.600Z,93.5
2023-02-07T06:01:17.074Z,93.4
2023-02-07T06:02:17.139Z,93.3
2023-02-07T06:03:16.836Z,93.3
2023-02-07T06:04:17.360Z,93.3
2023-02-07T06:05:16.856Z,93.4
2023-02-07T06:06:17.363Z,93.4
2023-02-07T06:07:16.871Z,93.4
2023-02-07T06:08:17.374Z,93.4
2023-02-07T06:09:16.857Z,93.5
2023-02-07T06:10:17.325Z,93.4
2023-02-07T06:11:16.819Z,93.4
2023-02-07T06:12:16.575Z,93.3
2023-02-07T06:13:17.036Z,93.3
2023-02-07T06:14:16.535Z,93.3
2023-02-07T06:15:17.070Z,93.3
2023-02-07T06:16:16.648Z,93.2
2023-02-07T06:17:17.180Z,93.3
2023-02-07T06:18:16.664Z,93.3
2023-02-07T06:19:17.167Z,93.2
2023-02-07T06:20:16.679Z,93.1
2023-02-07T06:21:17.382Z,93.2
2023-02-07T06:22:16.579Z,93.2
2023-02-07T06:23:17.055Z,93.3
2023-02-07T06:24:16.578Z,93.3
2023-02-07T06:25:17.081Z,93.1
2023-02-07T06:26:16.566Z,93.0
2023-02-07T06:27:17.063Z,93.0
2023-02-07T06:28:16.739Z,92.9
2023-02-07T06:29:17.210Z,92.8
2023-02-07T06:30:16.699Z,92.8
2023-02-07T06:31:17.408Z,92.8
2023-02-07T06:32:17.041Z,92.9
2023-02-07T06:33:16.517Z,92.9
2023-02-07T06:34:17.004Z,92.9
2023-02-07T06:35:16.473Z,92.9
2023-02-07T06:36:16.968Z,92.9
2023-02-07T06:37:16.450Z,92.9
2023-02-07T06:38:16.964Z,92.9
2023-02-07T06:39:16.457Z,92.8
2023-02-07T06:40:16.982Z,92.8
2023-02-07T06:41:16.495Z,92.8
2023-02-07T06:42:17.104Z,92.8
2023-02-07T06:43:16.612Z,92.8
2023-02-07T06:44:17.114Z,92.8
2023-02-07T06:45:16.606Z,92.8
2023-02-07T06:46:17.145Z,92.9
2023-02-07T06:47:16.671Z,93.0
2023-02-07T06:48:17.193Z,93.0
2023-02-07T06:49:16.726Z,93.0
2023-02-07T06:50:17.235Z,93.0
2023-02-07T06:51:16.757Z,93.0
2023-02-07T06:52:17.323Z,93.0
2023-02-07T06:53:16.805Z,92.9
2023-02-07T06:54:17.302Z,92.9
2023-02-07T06:55:16.834Z,92.8
2023-02-07T06:56:18.896Z,92.7
2023-02-07T06:57:17.410Z,92.8
2023-02-07T06:58:16.925Z,92.8
2023-02-07T06:59:16.488Z,92.8
2023-02-07T07:00:16.971Z,92.8
2023-02-07T07:01:16.614Z,92.9
2023-02-07T07:02:16.872Z,92.8
2023-02-07T07:03:17.555Z,92.9
2023-02-07T07:04:17.098Z,93.0
2023-02-07T07:05:16.743Z,93.0
2023-02-07T07:06:17.229Z,93.0
2023-02-07T07:07:16.712Z,93.0
2023-02-07T07:08:17.209Z,93.0
2023-02-07T07:09:16.722Z,93.0
2023-02-07T07:10:17.356Z,93.0
2023-02-07T07:11:16.877Z,92.9
2023-02-07T07:12:17.321Z,92.9
2023-02-07T07:13:16.831Z,92.8
2023-02-07T07:14:17.328Z,92.8
2023-02-07T07:15:16.823Z,92.8
2023-02-07T07:16:17.566Z,92.7
2023-02-07T07:17:17.088Z,92.6
2023-02-07T07:18:16.569Z,92.5
2023-02-07T07:19:17.042Z,92.5
2023-02-07T07:20:16.588Z,92.4
2023-02-07T07:21:17.066Z,92.1
2023-02-07T07:22:18.748Z,92.1
2023-02-07T07:23:17.263Z,92.1
2023-02-07T07:24:16.758Z,92.1
2023-02-07T07:25:17.250Z,92.1
2023-02-07T07:26:16.775Z,92.0
2023-02-07T07:27:17.265Z,92.0
2023-02-07T07:28:16.842Z,92.0
2023-02-07T07:29:17.311Z,92.0
2023-02-07T07:30:16.830Z,91.8
2023-02-07T07:31:17.495Z,91.7
2023-02-07T07:32:33.840Z,91.4
2023-02-07T07:33:16.502Z,91.3
2023-02-07T07:34:17.398Z,91.4
2023-02-07T07:35:19.673Z,91.5
2023-02-07T07:36:17.278Z,91.5
2023-02-07T07:37:16.742Z,91.4
2023-02-07T07:38:17.237Z,91.4
2023-02-07T07:39:16.730Z,91.3
2023-02-07T07:40:17.235Z,91.3
2023-02-07T07:41:16.726Z,91.1
2023-02-07T07:42:17.374Z,91.0
2023-02-07T07:43:16.855Z,90.9
2023-02-07T07:44:17.343Z,90.6
2023-02-07T07:45:16.857Z,90.8
2023-02-07T07:46:17.455Z,90.8
2023-02-07T07:47:16.963Z,90.6
2023-02-07T07:48:16.563Z,90.5
2023-02-07T07:49:17.108Z,90.2
2023-02-07T07:50:16.604Z,90.0
2023-02-07T07:51:17.083Z,89.8
2023-02-07T07:52:16.595Z,89.7
2023-02-07T07:53:17.092Z,89.5
2023-02-07T07:54:16.611Z,89.2
2023-02-07T07:55:17.108Z,89.2
2023-02-07T07:56:16.590Z,89.2
2023-02-07T07:57:17.100Z,89.1
2023-02-07T07:58:16.598Z,88.8
2023-02-07T07:59:24.413Z,88.8
2023-02-07T08:00:16.932Z,88.4
2023-02-07T08:01:17.518Z,88.2
2023-02-07T08:02:17.317Z,87.9
2023-02-07T08:03:16.827Z,87.9
2023-02-07T08:04:17.369Z,88.3
2023-02-07T08:05:16.889Z,86.9
2023-02-07T08:06:17.360Z,87.0
2023-02-07T08:07:16.889Z,87.0
2023-02-07T08:08:17.381Z,86.2
2023-02-07T08:09:16.884Z,86.6
2023-02-07T08:10:17.372Z,87.0
2023-02-07T08:11:16.868Z,86.5
2023-02-07T08:12:17.329Z,86.6
2023-02-07T08:13:16.856Z,86.3
2023-02-07T08:14:17.385Z,86.4
2023-02-07T08:15:16.875Z,85.5
2023-02-07T08:16:17.425Z,85.3
2023-02-07T08:17:16.939Z,84.3
2023-02-07T08:18:17.424Z,85.3
2023-02-07T08:19:16.915Z,85.1
2023-02-07T08:20:17.401Z,85.0
2023-02-07T08:21:16.898Z,84.8
2023-02-07T08:22:17.353Z,83.6
2023-02-07T08:23:16.836Z,83.1
2023-02-07T08:24:17.319Z,83.4
2023-02-07T08:25:16.804Z,83.4
2023-02-07T08:26:17.323Z,83.2
2023-02-07T08:27:16.821Z,83.3
2023-02-07T08:28:17.496Z,83.1
2023-02-07T08:29:17.019Z,81.8
2023-02-07T08:30:16.505Z,82.1
2023-02-07T08:31:17.267Z,81.6
2023-02-07T08:32:16.669Z,81.7
2023-02-07T08:33:17.161Z,81.1
2023-02-07T08:34:16.656Z,80.0
2023-02-07T08:35:17.165Z,80.3
2023-02-07T08:36:16.673Z,80.9
2023-02-07T08:37:17.266Z,80.8
2023-02-07T08:38:16.770Z,80.9
2023-02-07T08:39:17.279Z,80.4
2023-02-07T08:40:16.776Z,80.2
2023-02-07T08:41:17.275Z,80.4
2023-02-07T08:42:16.788Z,79.8
2023-02-07T08:43:17.276Z,79.7
2023-02-07T08:44:16.733Z,79.2
2023-02-07T08:45:17.297Z,79.6
2023-02-07T08:46:16.903Z,78.7
2023-02-07T08:47:18.926Z,78.9
2023-02-07T08:48:17.457Z,78.5
2023-02-07T08:49:16.977Z,78.6
2023-02-07T08:50:16.459Z,77.9
2023-02-07T08:51:16.984Z,77.6
2023-02-07T08:52:17.426Z,76.8
2023-02-07T08:53:16.943Z,77.7
2023-02-07T08:54:17.437Z,77.0
2023-02-07T08:55:16.924Z,76.8
2023-02-07T08:56:17.427Z,77.7
2023-02-07T08:57:16.949Z,78.1
2023-02-07T08:58:17.447Z,76.2
2023-02-07T08:59:16.962Z,76.2
2023-02-07T09:00:17.479Z,76.4
2023-02-07T09:01:17.232Z,76.3
2023-02-07T09:02:17.574Z,75.5
2023-02-07T09:03:17.106Z,75.9
2023-02-07T09:04:16.594Z,75.4
2023-02-07T09:05:17.134Z,75.3
2023-02-07T09:06:16.674Z,74.2
2023-02-07T09:07:17.160Z,74.4
2023-02-07T09:08:16.649Z,73.0
2023-02-07T09:09:17.174Z,72.4
2023-02-07T09:10:16.836Z,72.8
2023-02-07T09:11:17.625Z,69.9
2023-02-07T09:12:16.594Z,70.8
2023-02-07T09:13:17.064Z,69.6
2023-02-07T09:14:16.543Z,70.5
2023-02-07T09:15:17.052Z,70.1
2023-02-07T09:16:16.653Z,71.1
2023-02-07T09:17:17.149Z,69.5
2023-02-07T09:18:16.641Z,69.1
2023-02-07T09:19:17.159Z,70.7
2023-02-07T09:20:16.682Z,69.0
2023-02-07T09:21:17.205Z,69.0
2023-02-07T09:22:16.604Z,67.8
2023-02-07T09:23:17.075Z,66.2
2023-02-07T09:24:16.585Z,66.7
2023-02-07T09:25:17.080Z,67.5
2023-02-07T09:26:16.540Z,68.8
2023-02-07T09:27:17.045Z,67.1
2023-02-07T09:28:16.662Z,66.6
2023-02-07T09:29:17.214Z,68.0
2023-02-07T09:30:16.710Z,66.2
2023-02-07T09:31:17.522Z,67.5
2023-02-07T09:32:16.894Z,68.1
2023-02-07T09:33:17.465Z,67.8
2023-02-07T09:34:16.943Z,66.8
2023-02-07T09:35:17.440Z,66.1
2023-02-07T09:36:20.243Z,66.9
2023-02-07T09:37:16.806Z,66.5
2023-02-07T09:38:17.369Z,66.5
2023-02-07T09:39:16.900Z,64.9
2023-02-07T09:40:17.461Z,63.2
2023-02-07T09:41:16.953Z,65.5
2023-02-07T09:42:17.032Z,65.9
2023-02-07T09:43:16.908Z,65.9
2023-02-07T09:44:16.971Z,66.4
2023-02-07T09:45:16.803Z,66.0
2023-02-07T09:46:17.445Z,66.6
2023-02-07T09:47:16.978Z,65.1
2023-02-07T09:48:16.465Z,65.5
2023-02-07T09:49:16.965Z,65.1
2023-02-07T09:50:17.632Z,65.6
2023-02-07T09:51:17.279Z,65.2
2023-02-07T09:52:17.301Z,65.4
2023-02-07T09:53:17.141Z,65.9
2023-02-07T09:54:16.654Z,65.8
2023-02-07T09:55:17.166Z,64.1
2023-02-07T09:56:16.700Z,65.8
2023-02-07T09:57:17.217Z,65.9
2023-02-07T09:58:16.741Z,64.7
2023-02-07T09:59:17.242Z,65.8
2023-02-07T10:00:16.744Z,65.9
2023-02-07T10:01:17.313Z,64.3
2023-02-07T10:02:16.864Z,63.8
2023-02-07T10:03:17.371Z,62.9
2023-02-07T10:04:16.848Z,64.0
2023-02-07T10:05:17.358Z,64.2
2023-02-07T10:06:20.323Z,62.5
2023-02-07T10:07:17.126Z,61.2
2023-02-07T10:08:16.634Z,63.4
2023-02-07T10:09:17.180Z,63.3
2023-02-07T10:10:16.718Z,63.1
2023-02-07T10:11:17.216Z,62.2
2023-02-07T10:12:17.009Z,60.8
2023-02-07T10:13:16.680Z,60.1
2023-02-07T10:14:17.191Z,60.8
2023-02-07T10:15:16.675Z,60.9
2023-02-07T10:16:17.468Z,60.1
2023-02-07T10:17:31.673Z,60.2
2023-02-07T10:18:17.451Z,59.2
2023-02-07T10:19:16.947Z,59.5
2023-02-07T10:20:17.559Z,59.6
2023-02-07T10:21:17.116Z,58.5
2023-02-07T10:22:16.512Z,58.1
2023-02-07T10:23:17.014Z,58.2
2023-02-07T10:24:16.504Z,58.5
2023-02-07T10:25:17.059Z,57.5
2023-02-07T10:26:16.674Z,57.3
2023-02-07T10:27:17.168Z,58.3
2023-02-07T10:28:16.727Z,56.4
2023-02-07T10:29:17.270Z,58.0
2023-02-07T10:30:16.836Z,57.4
2023-02-07T10:31:17.667Z,55.9
2023-02-07T10:32:16.868Z,58.4
2023-02-07T10:33:17.374Z,57.9
2023-02-07T10:34:16.919Z,57.3
2023-02-07T10:35:17.430Z,57.2
2023-02-07T10:36:16.942Z,57.5
2023-02-07T10:37:17.501Z,58.1
2023-02-07T10:38:17.004Z,56.7
2023-02-07T10:39:16.498Z,55.9
2023-02-07T10:40:16.982Z,56.0
2023-02-07T10:41:16.595Z,55.9
2023-02-07T10:42:17.269Z,56.1
2023-02-07T10:43:16.816Z,56.4
2023-02-07T10:44:17.314Z,56.7
2023-02-07T10:45:16.815Z,56.0
2023-02-07T10:46:17.454Z,56.1
2023-02-07T10:47:16.975Z,54.9
2023-02-07T10:48:16.568Z,55.5
2023-02-07T10:49:17.353Z,55.2
2023-02-07T10:50:30.076Z,55.3
2023-02-07T10:51:16.849Z,55.1
2023-02-07T10:52:16.843Z,55.1
2023-02-07T10:53:17.431Z,54.2
2023-02-07T10:54:16.993Z,54.6
2023-02-07T10:55:16.497Z,54.9
2023-02-07T10:56:17.012Z,55.0
2023-02-07T10:57:16.506Z,52.5
2023-02-07T10:58:23.960Z,52.7
2023-02-07T10:59:16.622Z,52.7
2023-02-07T11:00:17.201Z,52.4
2023-02-07T11:01:16.846Z,53.4
2023-02-07T11:02:17.341Z,54.6
2023-02-07T11:03:16.825Z,54.6
2023-02-07T11:04:17.315Z,54.6
2023-02-07T11:05:16.852Z,53.8
2023-02-07T11:06:17.452Z,53.6
2023-02-07T11:07:17.063Z,53.8
2023-02-07T11:08:16.561Z,53.8
2023-02-07T11:09:17.047Z,53.5
2023-02-07T11:10:16.572Z,54.4
2023-02-07T11:11:17.056Z,54.4
2023-02-07T11:12:16.614Z,54.2
2023-02-07T11:13:17.183Z,54.2
2023-02-07T11:14:16.707Z,54.8
2023-02-07T11:15:17.236Z,55.5
2023-02-07T11:16:16.815Z,55.5
2023-02-07T11:17:17.356Z,54.6
2023-02-07T11:18:16.857Z,55.1
2023-02-07T11:19:17.415Z,54.7
2023-02-07T11:20:16.926Z,55.7
2023-02-07T11:21:17.494Z,56.0
2023-02-07T11:22:17.472Z,56.3
2023-02-07T11:23:17.001Z,55.8
2023-02-07T11:24:16.573Z,55.9
2023-02-07T11:25:17.132Z,55.8
2023-02-07T11:26:16.649Z,55.3
2023-02-07T11:27:17.192Z,54.7
2023-02-07T11:28:16.801Z,54.7
2023-02-07T11:29:17.350Z,55.4
2023-02-07T11:30:16.925Z,55.6
2023-02-07T11:31:17.621Z,55.6
2023-02-07T11:32:17.233Z,56.3
2023-02-07T11:33:16.736Z,55.7
2023-02-07T11:34:17.222Z,55.4
2023-02-07T11:35:16.718Z,55.0
2023-02-07T11:36:17.197Z,54.9
2023-02-07T11:37:16.765Z,55.5
2023-02-07T11:38:17.311Z,55.4
2023-02-07T11:39:16.798Z,55.3
2023-02-07T11:40:17.434Z,55.6
2023-02-07T11:41:16.974Z,55.8
2023-02-07T11:42:17.279Z,56.0
2023-02-07T11:43:16.804Z,56.2
2023-02-07T11:44:17.307Z,56.5
2023-02-07T11:45:16.791Z,55.8
2023-02-07T11:46:17.376Z,56.2
2023-02-07T11:47:16.944Z,57.3
2023-02-07T11:48:17.427Z,57.4
2023-02-07T11:49:16.949Z,56.9
2023-02-07T11:50:17.563Z,56.3
2023-02-07T11:51:17.183Z,56.5
2023-02-07T11:52:17.012Z,57.1
2023-02-07T11:53:16.503Z,56.8
2023-02-07T11:54:17.216Z,57.4
2023-02-07T11:55:16.733Z,56.6
2023-02-07T11:56:17.243Z,56.6
2023-02-07T11:57:16.737Z,56.6
2023-02-07T11:58:17.273Z,55.8
2023-02-07T11:59:16.792Z,55.8
2023-02-07T12:00:17.612Z,56.0
2023-02-07T12:01:17.147Z,55.7
2023-02-07T12:02:16.772Z,56.2
2023-02-07T12:03:17.325Z,55.9
2023-02-07T12:04:16.826Z,56.0
2023-02-07T12:05:17.435Z,55.9
2023-02-07T12:06:16.934Z,55.9
2023-02-07T12:07:17.464Z,55.8
2023-02-07T12:08:16.960Z,56.4
2023-02-07T12:09:17.506Z,55.7
2023-02-07T12:10:17.196Z,56.6
2023-02-07T12:11:16.720Z,55.6
2023-02-07T12:12:17.247Z,55.2
2023-02-07T12:13:16.760Z,55.7
2023-02-07T12:14:17.270Z,55.9
2023-02-07T12:15:16.761Z,55.9
2023-02-07T12:16:17.444Z,56.3
2023-02-07T12:17:16.959Z,56.6
2023-02-07T12:18:16.481Z,56.5
2023-02-07T12:19:16.971Z,55.9
2023-02-07T12:20:17.495Z,56.4
2023-02-07T12:21:17.004Z,56.0
2023-02-07T12:22:16.904Z,56.1
2023-02-07T12:23:41.575Z,55.5
2023-02-07T12:24:16.929Z,56.2
2023-02-07T12:25:17.446Z,55.9
2023-02-07T12:26:16.977Z,55.6
2023-02-07T12:27:16.479Z,56.0
2023-02-07T12:28:17.048Z,55.6
2023-02-07T12:29:16.609Z,55.4
2023-02-07T12:30:17.075Z,55.2
2023-02-07T12:31:16.813Z,56.1
2023-02-07T12:32:17.340Z,55.8
2023-02-07T12:33:16.855Z,55.2
2023-02-07T12:34:17.346Z,55.5
2023-02-07T12:35:16.875Z,55.1
2023-02-07T12:36:17.444Z,55.5
2023-02-07T12:37:16.938Z,55.6
2023-02-07T12:38:17.434Z,55.6
2023-02-07T12:39:16.923Z,55.7
2023-02-07T12:40:17.422Z,55.3
2023-02-07T12:41:16.898Z,54.7
2023-02-07T12:42:16.646Z,54.7
2023-02-07T12:43:17.125Z,54.9
2023-02-07T12:44:16.611Z,54.9
2023-02-07T12:45:17.141Z,54.5
2023-02-07T12:46:16.643Z,54.4
2023-02-07T12:47:17.142Z,54.0
2023-02-07T12:48:16.696Z,53.1
2023-02-07T12:49:17.238Z,53.6
2023-02-07T12:50:16.787Z,53.5
2023-02-07T12:51:17.319Z,53.6
2023-02-07T12:52:16.747Z,54.2
2023-02-07T12:53:17.224Z,54.5
2023-02-07T12:54:16.715Z,54.0
2023-02-07T12:55:17.205Z,53.0
2023-02-07T12:56:16.684Z,53.3
2023-02-07T12:57:17.222Z,53.4
2023-02-07T12:58:16.731Z,53.5
2023-02-07T12:59:17.258Z,53.7
2023-02-07T13:00:16.761Z,53.4
2023-02-07T13:01:17.340Z,53.6
2023-02-07T13:02:16.968Z,52.9
2023-02-07T13:03:17.346Z,53.1
2023-02-07T13:04:16.888Z,53.5
2023-02-07T13:05:17.395Z,53.5
2023-02-07T13:06:16.887Z,53.5
2023-02-07T13:07:17.368Z,53.5
2023-02-07T13:08:16.868Z,52.9
2023-02-07T13:09:17.686Z,52.4
2023-02-07T13:10:17.190Z,51.7
2023-02-07T13:11:16.717Z,51.6
2023-02-07T13:12:17.398Z,51.8
2023-02-07T13:13:16.947Z,52.0
2023-02-07T13:14:17.449Z,52.1
2023-02-07T13:15:18.070Z,52.3
2023-02-07T13:16:16.664Z,52.5
2023-02-07T13:17:17.162Z,52.6
2023-02-07T13:18:16.645Z,52.9